Time;durP1;ratioP1;P1;durP2;ratioP2;P2;SDS_P1;SDS_P2;PMS_P1;PMS_P2;Temp;Humidity;BMP_temperature;BMP_pressure;BME280_temperature;BME280_humidity;BME280_pressure;Samples;Min_cycle;Max_cycle;Signal;HPM_P1;HPM_P2
2023/03/29 00:00:45;;;;;;;8.52;4.65;;;;;;;;;;5116161;28;20038;-90
2023/03/29 00:03:12;;;;;;;7.97;3.40;;;;;;;;;;5094822;28;20070;-90
2023/03/29 00:05:40;;;;;;;7.47;3.65;;;;;;;;;;5093236;28;20157;-91
2023/03/29 00:08:06;;;;;;;6.80;3.75;;;;;;;;;;5111510;28;20036;-91
2023/03/29 00:10:33;;;;;;;8.55;3.65;;;;;;;;;;5113709;28;20051;-90
2023/03/29 00:12:59;;;;;;;8.05;3.75;;;;;;;;;;5115905;28;20023;-90
2023/03/29 00:15:25;;;;;;;6.10;3.47;;;;;;;;;;5097124;28;20047;-90
2023/03/29 00:17:51;;;;;;;7.80;3.90;;;;;;;;;;5115514;28;20035;-90
2023/03/29 00:23:21;;;;;;;6.03;3.30;;;;;;;;;;5115851;28;20038;-90
2023/03/29 00:25:47;;;;;;;5.30;3.13;;;;;;;;;;5115233;28;20016;-90
2023/03/29 00:28:13;;;;;;;8.90;4.00;;;;;;;;;;5097613;28;20054;-90
2023/03/29 00:30:40;;;;;;;7.03;2.97;;;;;;;;;;5097541;28;20321;-91
2023/03/29 00:33:06;;;;;;;6.68;3.17;;;;;;;;;;5115106;28;20028;-90
2023/03/29 00:41:40;;;;;;;5.20;3.25;;;;;;;;;;5095293;28;20043;-90
2023/03/29 00:44:07;;;;;;;6.03;3.50;;;;;;;;;;5115243;28;20069;-89
2023/03/29 00:46:33;;;;;;;6.05;3.47;;;;;;;;;;5116177;28;20027;-90
2023/03/29 00:55:27;;;;;;;10.38;4.30;;;;;;;;;;5114494;28;20309;-90
2023/03/29 00:57:54;;;;;;;13.48;6.13;;;;;;;;;;5115748;28;20027;-90
2023/03/29 01:00:21;;;;;;;16.45;6.28;;;;;;;;;;5116116;28;20112;-91
2023/03/29 01:02:52;;;;;;;13.25;5.97;;;;;;;;;;5116456;28;20053;-90
2023/03/29 01:05:24;;;;;;;12.43;6.18;;;;;;;;;;5113512;28;20024;-91
2023/03/29 01:07:56;;;;;;;13.43;5.53;;;;;;;;;;5115633;28;20110;-89
2023/03/29 01:10:30;;;;;;;9.93;5.10;;;;;;;;;;5097526;28;20027;-90
2023/03/29 01:12:59;;;;;;;8.95;4.65;;;;;;;;;;5114151;28;20039;-91
2023/03/29 01:15:27;;;;;;;8.07;4.45;;;;;;;;;;5117795;27;20093;-91
2023/03/29 01:17:54;;;;;;;7.88;4.20;;;;;;;;;;5114391;28;20069;-89
2023/03/29 01:20:23;;;;;;;8.65;4.03;;;;;;;;;;5098260;28;20066;-90
2023/03/29 01:22:50;;;;;;;8.05;4.03;;;;;;;;;;5115690;28;20050;-92
2023/03/29 01:25:34;;;;;;;6.53;3.55;;;;;;;;;;5116193;28;20031;-90
2023/03/29 01:28:05;;;;;;;9.98;3.90;;;;;;;;;;5098309;28;20339;-90
2023/03/29 01:30:34;;;;;;;5.40;3.38;;;;;;;;;;5117695;27;20088;-91
2023/03/29 01:33:11;;;;;;;5.53;3.20;;;;;;;;;;5115928;28;20035;-90
2023/03/29 01:36:17;;;;;;;5.53;3.15;;;;;;;;;;5114153;28;20054;-92
2023/03/29 01:38:53;;;;;;;7.32;3.50;;;;;;;;;;5012827;28;20030;-90
2023/03/29 01:41:19;;;;;;;7.75;4.07;;;;;;;;;;5013388;28;20038;-90
2023/03/29 01:44:06;;;;;;;6.93;3.28;;;;;;;;;;4996892;28;20124;-89
2023/03/29 01:46:34;;;;;;;6.65;3.20;;;;;;;;;;4996902;28;20026;-91
2023/03/29 01:52:40;;;;;;;7.32;3.40;;;;;;;;;;5011868;28;20368;-91
2023/03/29 01:55:14;;;;;;;7.07;3.83;;;;;;;;;;5012988;28;20030;-90
2023/03/29 01:57:42;;;;;;;6.78;3.72;;;;;;;;;;4996756;28;20092;-89
2023/03/29 02:00:11;;;;;;;5.68;3.38;;;;;;;;;;5013919;28;20034;-90
2023/03/29 02:02:39;;;;;;;7.30;3.13;;;;;;;;;;5013715;28;20037;-90
2023/03/29 02:08:45;;;;;;;6.50;3.30;;;;;;;;;;5013086;28;20137;-90
2023/03/29 02:11:12;;;;;;;4.80;2.72;;;;;;;;;;5097389;28;20119;-90
2023/03/29 02:13:38;;;;;;;9.23;3.80;;;;;;;;;;5115475;28;20023;-90
2023/03/29 02:16:10;;;;;;;6.28;3.70;;;;;;;;;;5110566;28;20039;-89
2023/03/29 02:18:37;;;;;;;7.13;3.00;;;;;;;;;;5123937;28;20016;-89
2023/03/29 02:21:03;;;;;;;6.85;3.38;;;;;;;;;;5114937;28;20039;-89
2023/03/29 02:23:32;;;;;;;10.32;3.55;;;;;;;;;;5115082;28;20027;-88
2023/03/29 02:25:59;;;;;;;7.40;3.15;;;;;;;;;;5114775;28;20121;-89
2023/03/29 02:28:25;;;;;;;5.68;3.00;;;;;;;;;;5098480;28;20016;-90
2023/03/29 02:30:58;;;;;;;7.47;3.58;;;;;;;;;;5119212;28;20027;-89
2023/03/29 02:33:24;;;;;;;;;;;;;;;;;;5101024;28;20020;-89
2023/03/29 02:36:22;;;;;;;7.15;3.67;;;;;;;;;;5118252;28;19981;-88
2023/03/29 02:38:49;;;;;;;6.72;3.28;;;;;;;;;;5125715;27;20036;-88
2023/03/29 02:41:16;;;;;;;6.20;3.42;;;;;;;;;;5118587;28;20061;-89
2023/03/29 02:43:43;;;;;;;5.43;3.00;;;;;;;;;;5119172;28;20031;-89
2023/03/29 02:46:10;;;;;;;6.50;3.60;;;;;;;;;;5118028;28;20314;-90
2023/03/29 02:48:37;;;;;;;5.63;3.53;;;;;;;;;;5116023;28;20020;-89
2023/03/29 02:54:22;;;;;;;9.63;3.75;;;;;;;;;;5116813;28;20333;-90
2023/03/29 02:56:49;;;;;;;6.88;3.90;;;;;;;;;;5115061;28;20019;-90
2023/03/29 02:59:18;;;;;;;7.97;3.80;;;;;;;;;;5116211;28;20027;-90
2023/03/29 03:01:44;;;;;;;8.23;4.40;;;;;;;;;;5100289;28;20027;-89
2023/03/29 03:04:11;;;;;;;6.93;3.92;;;;;;;;;;5119404;28;20057;-90
2023/03/29 03:07:09;;;;;;;10.27;4.18;;;;;;;;;;5120944;28;20016;-90
2023/03/29 03:09:35;;;;;;;8.63;4.60;;;;;;;;;;5103126;28;20046;-90
2023/03/29 03:12:01;;;;;;;10.25;4.50;;;;;;;;;;5121103;28;20028;-91
2023/03/29 03:14:28;;;;;;;7.93;4.63;;;;;;;;;;5103025;28;20031;-90
2023/03/29 03:16:54;;;;;;;7.03;4.38;;;;;;;;;;5120979;28;20028;-90
2023/03/29 03:19:20;;;;;;;9.27;4.75;;;;;;;;;;5102778;28;20057;-90
2023/03/29 03:21:48;;;;;;;7.88;5.20;;;;;;;;;;5102760;28;20026;-90
2023/03/29 03:24:14;;;;;;;22.65;7.57;;;;;;;;;;5121069;28;20053;-90
2023/03/29 03:26:40;;;;;;;12.30;5.95;;;;;;;;;;5102527;28;20114;-90
2023/03/29 03:29:06;;;;;;;14.30;6.05;;;;;;;;;;5120460;28;20016;-89
2023/03/29 03:31:32;;;;;;;11.05;5.80;;;;;;;;;;5120764;28;20027;-89
2023/03/29 03:33:58;;;;;;;13.57;7.15;;;;;;;;;;5102410;28;20051;-90
2023/03/29 03:36:27;;;;;;;13.45;6.68;;;;;;;;;;5120670;28;20024;-91
2023/03/29 03:38:54;;;;;;;12.07;6.00;;;;;;;;;;5120076;28;20325;-90
2023/03/29 03:41:20;;;;;;;17.13;7.15;;;;;;;;;;5120057;28;20036;-91
2023/03/29 03:43:47;;;;;;;10.90;5.88;;;;;;;;;;5120666;28;20115;-91
2023/03/29 03:46:17;;;;;;;12.48;5.47;;;;;;;;;;5120533;28;20027;-90
2023/03/29 03:48:46;;;;;;;11.85;6.13;;;;;;;;;;5120315;28;20085;-90
2023/03/29 03:51:12;;;;;;;14.95;7.18;;;;;;;;;;5102167;28;20059;-90
2023/03/29 03:53:39;;;;;;;15.23;7.22;;;;;;;;;;5120087;28;20414;-90
2023/03/29 03:56:07;;;;;;;11.57;6.18;;;;;;;;;;5120190;28;20047;-90
2023/03/29 03:58:35;;;;;;;10.88;5.85;;;;;;;;;;5120170;28;20027;-91
2023/03/29 04:01:01;;;;;;;20.65;10.02;;;;;;;;;;5120016;28;20035;-90
2023/03/29 04:03:27;;;;;;;20.02;10.02;;;;;;;;;;5101917;28;20096;-89
2023/03/29 04:05:54;;;;;;;16.08;6.53;;;;;;;;;;5101758;28;20031;-88
2023/03/29 04:08:21;;;;;;;13.55;5.93;;;;;;;;;;5119722;28;20023;-89
2023/03/29 04:10:54;;;;;;;16.58;5.90;;;;;;;;;;5119647;28;20035;-89
2023/03/29 04:13:21;;;;;;;11.55;5.32;;;;;;;;;;5119576;28;20406;-89
2023/03/29 04:15:52;;;;;;;10.57;5.20;;;;;;;;;;5101799;28;20058;-91
2023/03/29 04:18:20;;;;;;;12.93;6.20;;;;;;;;;;5101808;28;20027;-90
2023/03/29 04:23:49;;;;;;;11.75;5.20;;;;;;;;;;5119602;28;20427;-90
2023/03/29 04:26:16;;;;;;;10.00;5.40;;;;;;;;;;5119757;28;20310;-90
2023/03/29 04:28:43;;;;;;;8.60;4.57;;;;;;;;;;5119083;28;20020;-90
2023/03/29 04:31:12;;;;;;;11.73;5.05;;;;;;;;;;5101077;28;20063;-90
2023/03/29 04:33:39;;;;;;;11.55;4.75;;;;;;;;;;5119459;28;20061;-90
2023/03/29 04:39:31;;;;;;;14.05;4.88;;;;;;;;;;5118708;28;20057;-89
2023/03/29 04:41:57;;;;;;;16.38;6.32;;;;;;;;;;5118905;28;20402;-90
2023/03/29 04:44:23;;;;;;;14.15;5.50;;;;;;;;;;5100841;28;20038;-90
2023/03/29 04:46:49;;;;;;;12.63;5.47;;;;;;;;;;5118978;28;20051;-92
2023/03/29 04:49:16;;;;;;;13.30;5.75;;;;;;;;;;5119139;28;20023;-91
2023/03/29 04:54:46;;;;;;;9.95;4.93;;;;;;;;;;5119161;28;20031;-90
2023/03/29 04:57:12;;;;;;;8.48;4.05;;;;;;;;;;5118751;28;20051;-89
2023/03/29 04:59:38;;;;;;;11.15;4.30;;;;;;;;;;5119154;28;20027;-85
2023/03/29 05:02:04;;;;;;;8.25;3.97;;;;;;;;;;5118463;28;20420;-84
2023/03/29 05:04:31;;;;;;;6.72;3.45;;;;;;;;;;5100567;28;20356;-84
2023/03/29 05:06:57;;;;;;;10.10;3.63;;;;;;;;;;5100666;28;20406;-85
2023/03/29 05:09:24;;;;;;;7.63;3.83;;;;;;;;;;5118406;28;20059;-85
2023/03/29 05:11:50;;;;;;;17.58;8.25;;;;;;;;;;5118566;28;20053;-84
2023/03/29 05:14:17;;;;;;;21.23;7.65;;;;;;;;;;5100039;28;20028;-85
2023/03/29 05:16:43;;;;;;;22.77;6.82;;;;;;;;;;5100329;28;20020;-85
2023/03/29 05:19:10;;;;;;;20.92;7.78;;;;;;;;;;5118467;28;20043;-84
2023/03/29 05:21:37;;;;;;;13.80;5.03;;;;;;;;;;5117694;28;20103;-85
2023/03/29 05:24:03;;;;;;;10.15;4.15;;;;;;;;;;5116972;28;20024;-84
2023/03/29 05:26:29;;;;;;;17.02;6.63;;;;;;;;;;5117259;28;20016;-84
2023/03/29 05:28:56;;;;;;;15.98;6.30;;;;;;;;;;5118135;28;20031;-84
2023/03/29 05:31:22;;;;;;;12.02;5.20;;;;;;;;;;5099818;28;20321;-84
2023/03/29 05:33:48;;;;;;;12.75;5.55;;;;;;;;;;5118376;28;20023;-85
2023/03/29 05:36:17;;;;;;;16.20;7.32;;;;;;;;;;5118367;28;20078;-84
2023/03/29 05:38:45;;;;;;;34.80;10.57;;;;;;;;;;5118079;28;20039;-84
2023/03/29 05:41:11;;;;;;;29.23;8.82;;;;;;;;;;5117897;28;20100;-84
2023/03/29 05:43:37;;;;;;;35.75;9.95;;;;;;;;;;5118252;28;20020;-84
2023/03/29 05:46:04;;;;;;;21.42;7.82;;;;;;;;;;5118298;28;20107;-84
2023/03/29 05:48:31;;;;;;;21.83;7.25;;;;;;;;;;5117967;28;20042;-83
2023/03/29 05:50:57;;;;;;;21.50;7.80;;;;;;;;;;5117566;28;20061;-84
2023/03/29 05:53:25;;;;;;;25.48;8.82;;;;;;;;;;5117755;28;20034;-84
2023/03/29 05:55:51;;;;;;;16.67;6.55;;;;;;;;;;5099952;28;20023;-84
2023/03/29 05:58:17;;;;;;;20.98;7.00;;;;;;;;;;5118016;28;20031;-84
2023/03/29 06:00:44;;;;;;;18.15;6.20;;;;;;;;;;5099449;28;20055;-84
2023/03/29 06:03:17;;;;;;;12.95;5.25;;;;;;;;;;5120425;28;20069;-84
2023/03/29 06:05:45;;;;;;;14.15;5.50;;;;;;;;;;5103622;28;20054;-84
2023/03/29 06:08:11;;;;;;;9.05;4.22;;;;;;;;;;5122159;28;20345;-84
2023/03/29 06:10:37;;;;;;;14.35;4.00;;;;;;;;;;5103863;28;20030;-84
2023/03/29 06:13:04;;;;;;;12.52;4.28;;;;;;;;;;5122016;28;20034;-85
2023/03/29 06:15:31;;;;;;;8.40;3.90;;;;;;;;;;5121736;28;20410;-84
2023/03/29 06:17:58;;;;;;;9.27;4.43;;;;;;;;;;5103646;28;20413;-83
2023/03/29 06:20:24;;;;;;;7.80;3.47;;;;;;;;;;5121519;28;20410;-83
2023/03/29 06:22:51;;;;;;;7.40;3.63;;;;;;;;;;5103615;28;20065;-84
2023/03/29 06:25:18;;;;;;;15.80;4.03;;;;;;;;;;5102931;28;20149;-84
2023/03/29 06:27:47;;;;;;;9.93;3.50;;;;;;;;;;5121445;28;20031;-84
2023/03/29 06:30:14;;;;;;;4.82;2.92;;;;;;;;;;5121348;28;20023;-83
2023/03/29 06:32:41;;;;;;;6.47;3.28;;;;;;;;;;5121657;28;20024;-84
2023/03/29 06:35:42;;;;;;;7.20;3.72;;;;;;;;;;5121277;28;20126;-84
2023/03/29 06:38:08;;;;;;;7.47;3.85;;;;;;;;;;5120903;28;20028;-84
2023/03/29 06:40:36;;;;;;;10.63;4.47;;;;;;;;;;5121265;28;20027;-83
2023/03/29 06:43:02;;;;;;;8.50;4.40;;;;;;;;;;5120984;28;20043;-83
2023/03/29 06:45:30;;;;;;;6.07;3.38;;;;;;;;;;5121073;28;20020;-83
2023/03/29 06:47:56;;;;;;;7.78;3.70;;;;;;;;;;5121048;28;20114;-83
2023/03/29 06:50:22;;;;;;;10.38;3.80;;;;;;;;;;5121057;28;20031;-84
2023/03/29 06:52:48;;;;;;;7.03;3.45;;;;;;;;;;5102909;28;20148;-83
2023/03/29 06:55:15;;;;;;;16.85;6.55;;;;;;;;;;5102565;28;20073;-82
2023/03/29 06:57:41;;;;;;;23.17;7.28;;;;;;;;;;5102759;28;20099;-83
2023/03/29 07:00:18;;;;;;;9.63;4.93;;;;;;;;;;5102533;28;20421;-83
2023/03/29 07:02:48;;;;;;;12.32;4.40;;;;;;;;;;5121038;28;20020;-83
2023/03/29 07:05:15;;;;;;;12.00;4.45;;;;;;;;;;5120712;28;20019;-83
2023/03/29 07:07:55;;;;;;;10.75;3.85;;;;;;;;;;5120450;28;20016;-83
2023/03/29 07:10:31;;;;;;;25.00;9.32;;;;;;;;;;5120526;28;20081;-83
2023/03/29 07:13:00;;;;;;;7.50;3.83;;;;;;;;;;5120516;28;20047;-83
2023/03/29 07:15:28;;;;;;;6.57;2.92;;;;;;;;;;5119893;28;20028;-83
2023/03/29 07:17:54;;;;;;;10.25;3.97;;;;;;;;;;5120371;28;20046;-84
2023/03/29 07:20:52;;;;;;;81.57;41.85;;;;;;;;;;5120236;28;20519;-83
2023/03/29 07:23:18;;;;;;;18.92;9.80;;;;;;;;;;5120606;28;20020;-83
2023/03/29 07:25:45;;;;;;;21.73;10.57;;;;;;;;;;5120257;28;20035;-83
2023/03/29 07:28:11;;;;;;;9.02;4.30;;;;;;;;;;5120143;28;20405;-83
2023/03/29 07:30:37;;;;;;;12.85;3.65;;;;;;;;;;5102110;28;20024;-83
2023/03/29 07:33:03;;;;;;;10.00;4.75;;;;;;;;;;5102064;28;20329;-83
2023/03/29 07:38:33;;;;;;;9.68;4.60;;;;;;;;;;5120098;28;20034;-83
2023/03/29 07:41:02;;;;;;;7.70;4.57;;;;;;;;;;5101686;28;20024;-83
2023/03/29 07:43:28;;;;;;;13.05;7.10;;;;;;;;;;5119846;28;20032;-83
2023/03/29 07:45:54;;;;;;;9.55;5.88;;;;;;;;;;5119898;28;20054;-83
2023/03/29 07:48:21;;;;;;;6.75;3.38;;;;;;;;;;5120071;28;20031;-83
2023/03/29 07:50:47;;;;;;;6.03;2.80;;;;;;;;;;5101663;28;20060;-83
2023/03/29 07:53:13;;;;;;;4.93;1.90;;;;;;;;;;5119873;28;20027;-83
2023/03/29 07:55:45;;;;;;;5.10;2.60;;;;;;;;;;5101588;28;20027;-83
2023/03/29 07:58:12;;;;;;;36.00;10.75;;;;;;;;;;5119532;28;20039;-83
2023/03/29 08:00:38;;;;;;;25.00;7.32;;;;;;;;;;5119357;28;20028;-83
2023/03/29 08:03:06;;;;;;;16.35;6.45;;;;;;;;;;5101393;28;20031;-82
2023/03/29 08:05:32;;;;;;;8.63;4.00;;;;;;;;;;5119316;28;20038;-83
2023/03/29 08:07:58;;;;;;;5.50;2.97;;;;;;;;;;5101256;28;20020;-83
2023/03/29 08:10:25;;;;;;;5.13;2.83;;;;;;;;;;5101250;28;20039;-83
2023/03/29 08:12:52;;;;;;;6.05;3.53;;;;;;;;;;5101228;28;20028;-83
2023/03/29 08:15:18;;;;;;;11.73;3.70;;;;;;;;;;5119615;28;20402;-82
2023/03/29 08:17:44;;;;;;;6.80;2.83;;;;;;;;;;5101155;28;20035;-83
2023/03/29 08:20:11;;;;;;;5.03;2.80;;;;;;;;;;5118804;28;20023;-83
2023/03/29 08:22:38;;;;;;;6.25;2.85;;;;;;;;;;5119262;28;20027;-82
2023/03/29 08:25:05;;;;;;;6.45;3.20;;;;;;;;;;5101055;28;20317;-83
2023/03/29 08:27:32;;;;;;;11.30;4.80;;;;;;;;;;5119243;28;20032;-82
2023/03/29 08:29:58;;;;;;;6.63;3.53;;;;;;;;;;5119019;28;20418;-83
2023/03/29 08:32:24;;;;;;;6.82;3.15;;;;;;;;;;5118982;28;20027;-83
2023/03/29 08:34:50;;;;;;;5.32;3.10;;;;;;;;;;5100822;28;20050;-84
2023/03/29 08:37:35;;;;;;;5.32;3.00;;;;;;;;;;5118753;28;20322;-83
2023/03/29 08:40:02;;;;;;;39.72;10.15;;;;;;;;;;5118444;28;20035;-83
2023/03/29 08:42:34;;;;;;;10.63;4.15;;;;;;;;;;5118766;28;20306;-83
2023/03/29 08:45:09;;;;;;;10.52;2.80;;;;;;;;;;5118902;28;20339;-83
2023/03/29 08:47:41;;;;;;;3.88;2.35;;;;;;;;;;5118468;28;20048;-82
2023/03/29 08:50:08;;;;;;;2.63;1.80;;;;;;;;;;5118970;28;20024;-82
2023/03/29 08:53:11;;;;;;;26.70;8.40;;;;;;;;;;5118530;28;20028;-87
2023/03/29 08:55:40;;;;;;;33.88;10.90;;;;;;;;;;5118400;28;20035;-83
2023/03/29 08:58:09;;;;;;;10.07;3.30;;;;;;;;;;5118393;28;20410;-83
2023/03/29 09:00:44;;;;;;;39.38;9.48;;;;;;;;;;5100246;28;20096;-83
2023/03/29 09:03:15;;;;;;;29.77;8.02;;;;;;;;;;5118302;28;20031;-83
2023/03/29 09:05:44;;;;;;;19.70;5.57;;;;;;;;;;5100413;28;20028;-82
2023/03/29 09:08:12;;;;;;;12.48;4.32;;;;;;;;;;5118202;28;20024;-82
2023/03/29 09:10:53;;;;;;;18.70;6.05;;;;;;;;;;5118136;28;20413;-82
2023/03/29 09:13:32;;;;;;;16.92;5.13;;;;;;;;;;5100129;28;20081;-83
2023/03/29 09:16:06;;;;;;;20.98;7.55;;;;;;;;;;5118182;28;20031;-82
2023/03/29 09:18:47;;;;;;;40.95;12.20;;;;;;;;;;5117938;28;20421;-82
2023/03/29 09:21:22;;;;;;;7.65;3.17;;;;;;;;;;5117878;28;20041;-82
2023/03/29 09:23:57;;;;;;;7.10;3.20;;;;;;;;;;5117899;28;20024;-82
2023/03/29 09:26:31;;;;;;;9.98;4.50;;;;;;;;;;5100003;28;20042;-83
2023/03/29 09:29:16;;;;;;;15.38;5.43;;;;;;;;;;5117962;28;20035;-82
2023/03/29 09:31:43;;;;;;;13.40;5.32;;;;;;;;;;5117998;28;20023;-83
2023/03/29 09:34:22;;;;;;;5.55;2.53;;;;;;;;;;5117801;28;20020;-82
2023/03/29 09:36:53;;;;;;;3.92;2.22;;;;;;;;;;5117521;28;20024;-83
2023/03/29 09:39:22;;;;;;;4.03;2.38;;;;;;;;;;5099574;28;20034;-82
2023/03/29 09:41:55;;;;;;;3.72;2.17;;;;;;;;;;5099370;28;20039;-82
2023/03/29 09:44:27;;;;;;;7.72;2.97;;;;;;;;;;5099739;28;20053;-82
2023/03/29 09:46:54;;;;;;;6.95;3.35;;;;;;;;;;5117679;28;20019;-82
2023/03/29 09:49:23;;;;;;;11.18;5.43;;;;;;;;;;5117948;28;20034;-82
2023/03/29 09:51:49;;;;;;;6.30;3.13;;;;;;;;;;5117652;28;20023;-83
2023/03/29 09:54:15;;;;;;;5.40;2.92;;;;;;;;;;5117970;28;20020;-83
2023/03/29 09:56:41;;;;;;;5.03;2.92;;;;;;;;;;5117718;28;20114;-82
2023/03/29 09:59:11;;;;;;;9.15;4.25;;;;;;;;;;5117292;28;20054;-82
2023/03/29 10:01:38;;;;;;;6.32;3.58;;;;;;;;;;5117964;28;20040;-82
2023/03/29 10:04:09;;;;;;;30.45;14.30;;;;;;;;;;5099516;28;20020;-83
2023/03/29 10:06:53;;;;;;;40.47;16.35;;;;;;;;;;5117740;28;20064;-83
2023/03/29 10:09:20;;;;;;;10.90;6.22;;;;;;;;;;5099376;28;20044;-83
2023/03/29 10:11:49;;;;;;;7.40;3.75;;;;;;;;;;5099223;28;20410;-81
2023/03/29 10:14:20;;;;;;;6.75;4.18;;;;;;;;;;5117711;28;20032;-82
2023/03/29 10:16:46;;;;;;;5.07;2.88;;;;;;;;;;5117472;28;20024;-83
2023/03/29 10:19:33;;;;;;;7.20;2.88;;;;;;;;;;5117686;28;20046;-82
2023/03/29 10:22:20;;;;;;;14.68;7.07;;;;;;;;;;5099196;28;20448;-82
2023/03/29 10:24:47;;;;;;;28.90;9.57;;;;;;;;;;5015093;28;20430;-82
2023/03/29 10:27:13;;;;;;;11.35;4.78;;;;;;;;;;5015197;28;20130;-82
2023/03/29 10:29:41;;;;;;;5.00;2.70;;;;;;;;;;5015205;28;20058;-82
2023/03/29 10:32:17;;;;;;;28.90;15.73;;;;;;;;;;5015249;28;20025;-82
2023/03/29 10:34:43;;;;;;;24.08;10.38;;;;;;;;;;4998594;28;20109;-81
2023/03/29 10:37:11;;;;;;;8.32;5.35;;;;;;;;;;5015031;28;20060;-82
2023/03/29 10:39:39;;;;;;;26.30;6.85;;;;;;;;;;5014979;28;20114;-82
2023/03/29 10:42:07;;;;;;;11.35;4.45;;;;;;;;;;5015010;28;20030;-82
2023/03/29 10:44:35;;;;;;;10.98;4.10;;;;;;;;;;5015089;28;20026;-82
2023/03/29 10:47:09;;;;;;;8.98;3.72;;;;;;;;;;5015010;28;20022;-82
2023/03/29 10:49:43;;;;;;;9.20;4.47;;;;;;;;;;5016302;28;20109;-82
2023/03/29 10:52:09;;;;;;;6.32;2.78;;;;;;;;;;5001303;28;20030;-82
2023/03/29 10:54:36;;;;;;;21.45;6.07;;;;;;;;;;5018465;28;20050;-82
2023/03/29 10:57:04;;;;;;;5.95;3.17;;;;;;;;;;5018540;28;20022;-81
2023/03/29 10:59:43;;;;;;;13.25;4.40;;;;;;;;;;5001928;28;20028;-82
2023/03/29 11:02:18;;;;;;;8.00;3.53;;;;;;;;;;5083867;28;20038;-82
2023/03/29 11:04:57;;;;;;;10.20;3.05;;;;;;;;;;5102503;28;20031;-82
2023/03/29 11:07:29;;;;;;;25.02;8.85;;;;;;;;;;5120909;28;20314;-82
2023/03/29 11:09:55;;;;;;;;;;;;;;;;;;5120875;28;20031;-82
2023/03/29 11:12:23;;;;;;;24.75;9.80;;;;;;;;;;5120375;28;19953;-82
2023/03/29 11:14:51;;;;;;;8.38;3.85;;;;;;;;;;5120472;28;20055;-82
2023/03/29 11:17:23;;;;;;;10.98;4.13;;;;;;;;;;5120768;28;20023;-83
2023/03/29 11:20:09;;;;;;;7.57;3.70;;;;;;;;;;5120385;28;20095;-83
2023/03/29 11:22:48;;;;;;;7.97;3.30;;;;;;;;;;5018000;28;20033;-83
2023/03/29 11:25:32;;;;;;;7.82;2.80;;;;;;;;;;5017846;28;20030;-82
2023/03/29 11:28:19;;;;;;;9.57;3.60;;;;;;;;;;5018113;28;20329;-83
2023/03/29 11:30:48;;;;;;;5.60;3.80;;;;;;;;;;4959512;29;20041;-83
2023/03/29 11:33:20;;;;;;;7.13;3.10;;;;;;;;;;4959077;29;20039;-82
2023/03/29 11:35:46;;;;;;;5.82;2.50;;;;;;;;;;4959442;29;20042;-82
2023/03/29 11:38:41;;;;;;;7.03;2.70;;;;;;;;;;4959230;29;20031;-81
2023/03/29 11:41:14;;;;;;;4.35;2.80;;;;;;;;;;4959015;29;20334;-81
2023/03/29 11:43:43;;;;;;;6.47;2.88;;;;;;;;;;4959268;28;20603;-82
2023/03/29 11:46:16;;;;;;;8.27;3.33;;;;;;;;;;4959090;28;20031;-80
2023/03/29 11:48:51;;;;;;;9.05;4.00;;;;;;;;;;4958153;29;20110;-80
2023/03/29 11:51:23;;;;;;;6.50;3.03;;;;;;;;;;4974573;28;20128;-81
2023/03/29 11:53:55;;;;;;;4.82;2.50;;;;;;;;;;4974542;28;20039;-80
2023/03/29 11:56:28;;;;;;;11.23;3.30;;;;;;;;;;4974430;28;20330;-80
2023/03/29 11:58:57;;;;;;;5.65;3.08;;;;;;;;;;4976861;28;20261;-80
2023/03/29 12:01:42;;;;;;;5.95;2.53;;;;;;;;;;5039725;28;20135;-79
2023/03/29 12:04:12;;;;;;;5.78;2.38;;;;;;;;;;5056763;28;20049;-80
2023/03/29 12:06:46;;;;;;;4.00;2.38;;;;;;;;;;5057202;28;20450;-80
2023/03/29 12:09:31;;;;;;;5.60;2.80;;;;;;;;;;5098814;28;20024;-80
2023/03/29 12:12:04;;;;;;;4.60;2.60;;;;;;;;;;5098984;28;20038;-80
2023/03/29 12:14:44;;;;;;;8.10;3.00;;;;;;;;;;5098750;28;20081;-80
2023/03/29 12:17:12;;;;;;;6.88;3.17;;;;;;;;;;5098748;28;20044;-80
2023/03/29 12:19:43;;;;;;;8.25;4.22;;;;;;;;;;5098484;28;20099;-79
2023/03/29 12:22:09;;;;;;;6.40;2.38;;;;;;;;;;5098850;28;20047;-81
2023/03/29 12:24:37;;;;;;;9.80;3.90;;;;;;;;;;5080510;28;20020;-80
2023/03/29 12:27:18;;;;;;;8.05;2.60;;;;;;;;;;5098583;28;20434;-85
2023/03/29 12:30:03;;;;;;;10.35;4.07;;;;;;;;;;5099237;28;20405;-86
2023/03/29 12:32:44;;;;;;;8.10;3.33;;;;;;;;;;5098896;28;20421;-86
2023/03/29 12:35:10;;;;;;;9.48;3.83;;;;;;;;;;5098716;28;20028;-86
2023/03/29 12:37:47;;;;;;;5.85;2.75;;;;;;;;;;5099041;28;20028;-86
2023/03/29 12:40:18;;;;;;;9.10;4.03;;;;;;;;;;5080380;28;20485;-86
2023/03/29 12:43:04;;;;;;;6.50;3.15;;;;;;;;;;5098600;28;20075;-85
2023/03/29 12:45:36;;;;;;;11.35;3.78;;;;;;;;;;5080929;28;20055;-86
2023/03/29 12:48:03;;;;;;;10.07;4.65;;;;;;;;;;5080828;28;20114;-86
2023/03/29 12:50:34;;;;;;;8.45;4.00;;;;;;;;;;5098814;28;20069;-86
2023/03/29 12:53:18;;;;;;;11.55;3.47;;;;;;;;;;5098499;28;20463;-85
2023/03/29 12:55:50;;;;;;;9.65;3.60;;;;;;;;;;5098437;28;20056;-86
2023/03/29 12:58:45;;;;;;;8.00;3.42;;;;;;;;;;5098889;28;20034;-86
2023/03/29 13:01:28;;;;;;;9.68;3.60;;;;;;;;;;5016464;28;20137;-86
2023/03/29 13:04:12;;;;;;;12.43;4.28;;;;;;;;;;5016704;28;20029;-86
2023/03/29 13:06:55;;;;;;;7.00;3.63;;;;;;;;;;5033224;28;20030;-86
2023/03/29 13:09:24;;;;;;;6.80;3.08;;;;;;;;;;5016555;28;20065;-86
2023/03/29 13:11:53;;;;;;;6.20;2.60;;;;;;;;;;5016020;28;20104;-85
2023/03/29 13:14:20;;;;;;;7.03;2.90;;;;;;;;;;5016568;28;20037;-86
2023/03/29 13:16:47;;;;;;;5.40;2.80;;;;;;;;;;5016672;28;20021;-86
2023/03/29 13:19:13;;;;;;;4.55;2.20;;;;;;;;;;5032945;28;20037;-86
2023/03/29 13:21:58;;;;;;;4.55;2.47;;;;;;;;;;5032874;28;20120;-86
2023/03/29 13:24:32;;;;;;;9.82;3.72;;;;;;;;;;5032889;28;20030;-86
2023/03/29 13:27:14;;;;;;;4.25;2.63;;;;;;;;;;5016364;28;20028;-86
2023/03/29 13:29:48;;;;;;;7.80;3.40;;;;;;;;;;5016330;28;20520;-86
2023/03/29 13:32:29;;;;;;;14.82;4.95;;;;;;;;;;5016371;28;20042;-85
2023/03/29 13:34:59;;;;;;;9.77;5.18;;;;;;;;;;5032801;28;20022;-86
2023/03/29 13:37:47;;;;;;;7.45;4.20;;;;;;;;;;5052498;28;20047;-86
2023/03/29 13:40:25;;;;;;;7.40;3.60;;;;;;;;;;5097995;28;20078;-87
2023/03/29 13:43:15;;;;;;;8.75;3.63;;;;;;;;;;5097623;28;20052;-86
2023/03/29 13:45:41;;;;;;;6.57;3.00;;;;;;;;;;5119535;27;20243;-86
2023/03/29 13:48:27;;;;;;;4.68;2.53;;;;;;;;;;5138633;28;20096;-85
2023/03/29 13:50:59;;;;;;;8.05;2.83;;;;;;;;;;5120527;28;20027;-86
2023/03/29 13:59:53;;;;;;;9.60;3.63;;;;;;;;;;5138872;28;20060;-85
2023/03/29 14:02:30;;;;;;;13.38;4.60;;;;;;;;;;5035790;28;20041;-86
2023/03/29 14:04:58;;;;;;;12.40;5.45;;;;;;;;;;5035851;28;20037;-86
2023/03/29 14:07:26;;;;;;;10.45;3.50;;;;;;;;;;5019304;28;20045;-86
2023/03/29 14:09:53;;;;;;;8.13;2.85;;;;;;;;;;5019197;28;20025;-86
2023/03/29 14:12:20;;;;;;;10.10;4.40;;;;;;;;;;5035726;28;20037;-86
2023/03/29 14:14:46;;;;;;;6.78;2.90;;;;;;;;;;5035613;28;20332;-86
2023/03/29 14:17:20;;;;;;;4.72;2.38;;;;;;;;;;5018970;28;20037;-85
2023/03/29 14:19:47;;;;;;;9.27;3.80;;;;;;;;;;5018983;28;20037;-85
2023/03/29 14:25:17;;;;;;;25.48;9.52;;;;;;;;;;5039469;28;20052;-86
2023/03/29 14:27:43;;;;;;;8.23;3.50;;;;;;;;;;5035001;28;20014;-85
2023/03/29 14:30:20;;;;;;;8.43;3.50;;;;;;;;;;5003020;28;20038;-86
2023/03/29 14:32:47;;;;;;;8.55;4.30;;;;;;;;;;5019188;28;20447;-87
2023/03/29 14:35:13;;;;;;;8.07;2.40;;;;;;;;;;5018798;28;20025;-85
2023/03/29 14:40:43;;;;;;;10.40;4.18;;;;;;;;;;5140173;27;20050;-85
2023/03/29 14:43:13;;;;;;;15.13;7.15;;;;;;;;;;5123814;27;20432;-85
2023/03/29 14:45:40;;;;;;;17.27;7.53;;;;;;;;;;5141683;27;20030;-85
2023/03/29 14:48:06;;;;;;;7.32;3.25;;;;;;;;;;5142232;27;20023;-85
2023/03/29 14:50:32;;;;;;;14.70;4.40;;;;;;;;;;5123594;27;20435;-85
2023/03/29 14:56:03;;;;;;;6.75;2.83;;;;;;;;;;5142042;27;20065;-86
2023/03/29 14:58:33;;;;;;;10.77;3.97;;;;;;;;;;5141413;27;20023;-86
2023/03/29 15:01:04;;;;;;;8.02;3.53;;;;;;;;;;5141873;27;20026;-86
2023/03/29 15:03:30;;;;;;;8.43;2.95;;;;;;;;;;5141574;27;20290;-85
2023/03/29 15:06:04;;;;;;;12.73;3.30;;;;;;;;;;5141858;27;20026;-86
2023/03/29 15:11:52;;;;;;;9.18;3.03;;;;;;;;;;5141794;27;20313;-86
2023/03/29 15:14:19;;;;;;;7.20;2.80;;;;;;;;;;5141560;27;20020;-86
2023/03/29 15:16:46;;;;;;;11.07;4.68;;;;;;;;;;5123393;27;20029;-85
2023/03/29 15:19:14;;;;;;;16.88;9.82;;;;;;;;;;5141697;27;20023;-86
2023/03/29 15:30:54;;;;;;;14.27;6.55;;;;;;;;;;5139880;27;20070;-86
2023/03/29 15:33:24;;;;;;;15.15;6.88;;;;;;;;;;5110408;28;20410;-84
2023/03/29 15:35:53;;;;;;;14.73;5.15;;;;;;;;;;5118845;28;20625;-85
2023/03/29 15:38:20;;;;;;;16.75;9.13;;;;;;;;;;5119420;28;20026;-86
2023/03/29 15:40:47;;;;;;;15.32;8.18;;;;;;;;;;5120193;28;20038;-86
2023/03/29 15:43:13;;;;;;;8.68;4.55;;;;;;;;;;5119176;28;20126;-86
2023/03/29 15:45:49;;;;;;;7.20;3.08;;;;;;;;;;5101429;28;20023;-86
2023/03/29 15:48:18;;;;;;;11.43;5.00;;;;;;;;;;5100115;28;20034;-86
2023/03/29 15:50:50;;;;;;;16.98;6.57;;;;;;;;;;5099775;28;20084;-86
2023/03/29 15:53:17;;;;;;;;;;;;;;;;;;5101511;28;20031;-87
2023/03/29 15:56:02;;;;;;;28.75;17.23;;;;;;;;;;5119887;28;19978;-86
2023/03/29 15:58:30;;;;;;;17.15;9.52;;;;;;;;;;5100715;28;20436;-86
2023/03/29 16:01:01;;;;;;;14.80;7.13;;;;;;;;;;5118714;28;20024;-86
2023/03/29 16:03:35;;;;;;;21.10;8.50;;;;;;;;;;5118588;28;20020;-86